Time;durP1;ratioP1;P1;durP2;ratioP2;P2;SDS_P1;SDS_P2;PMS_P1;PMS_P2;Temp;Humidity;BMP_temperature;BMP_pressure;BME280_temperature;BME280_humidity;BME280_pressure;Samples;Min_cycle;Max_cycle;Signal;HPM_P1;HPM_P2
2024/02/25 00:01:26;;;;;;;18.60;8.43;;;10.40;99.90;;;;;;5033198;28;20032;-68
2024/02/25 00:03:52;;;;;;;21.58;9.55;;;10.30;99.90;;;;;;5032912;28;20477;-67
2024/02/25 00:06:18;;;;;;;16.95;7.78;;;10.40;99.90;;;;;;5032614;28;20032;-68
2024/02/25 00:08:44;;;;;;;16.80;7.80;;;10.40;99.90;;;;;;5032835;28;20075;-68
2024/02/25 00:11:10;;;;;;;18.45;7.60;;;10.40;99.90;;;;;;5033207;28;20033;-68
2024/02/25 00:13:37;;;;;;;17.52;6.55;;;10.40;99.90;;;;;;5032732;28;20036;-68
2024/02/25 00:16:02;;;;;;;17.75;6.70;;;10.40;99.90;;;;;;5032807;28;20029;-68
2024/02/25 00:18:28;;;;;;;16.55;6.95;;;10.30;99.90;;;;;;5032679;28;20382;-68
2024/02/25 00:20:54;;;;;;;18.95;7.38;;;10.30;99.90;;;;;;5032784;28;20028;-68
2024/02/25 00:23:20;;;;;;;13.80;6.50;;;10.30;99.90;;;;;;5032932;28;20125;-68
2024/02/25 00:25:45;;;;;;;15.38;6.75;;;10.30;99.90;;;;;;5032980;28;20030;-68
2024/02/25 00:28:11;;;;;;;17.48;6.50;;;10.30;99.90;;;;;;5032633;28;20033;-68
2024/02/25 00:30:37;;;;;;;13.10;5.97;;;10.30;99.90;;;;;;5032798;28;20048;-68
2024/02/25 00:33:03;;;;;;;16.90;6.38;;;10.30;99.90;;;;;;5032866;28;20112;-68
2024/02/25 00:35:29;;;;;;;13.77;6.90;;;10.30;99.90;;;;;;5032925;28;20034;-68
2024/02/25 00:37:54;;;;;;;17.77;6.47;;;10.30;99.90;;;;;;5032771;28;20052;-68
2024/02/25 00:40:20;;;;;;;14.13;6.88;;;10.30;99.90;;;;;;5032629;28;20129;-68
2024/02/25 00:42:46;;;;;;;15.90;6.35;;;10.30;99.90;;;;;;5032242;28;20034;-68
2024/02/25 00:45:12;;;;;;;16.85;6.25;;;10.30;99.90;;;;;;5032695;28;20080;-68
2024/02/25 00:47:37;;;;;;;14.65;5.85;;;10.30;99.90;;;;;;5035584;28;20029;-68
2024/02/25 00:50:05;;;;;;;15.65;6.25;;;10.30;99.90;;;;;;5036464;28;20477;-68
2024/02/25 00:52:33;;;;;;;18.80;6.40;;;10.30;99.90;;;;;;5036970;28;20555;-68
2024/02/25 00:54:59;;;;;;;14.73;5.57;;;10.30;99.90;;;;;;5035927;28;20084;-68
2024/02/25 00:57:25;;;;;;;21.08;6.00;;;10.30;99.90;;;;;;5034884;28;20092;-68
2024/02/25 00:59:51;;;;;;;14.15;5.47;;;10.30;99.90;;;;;;5036011;28;20477;-68
2024/02/25 01:02:16;;;;;;;10.05;4.72;;;10.20;99.90;;;;;;5036079;28;20042;-68
2024/02/25 01:04:42;;;;;;;15.45;5.93;;;10.20;99.90;;;;;;5036167;28;20021;-68
2024/02/25 01:07:08;;;;;;;13.87;7.63;;;10.20;99.90;;;;;;5036116;28;20108;-67
2024/02/25 01:09:34;;;;;;;18.23;9.63;;;10.30;99.90;;;;;;5036347;28;20049;-67
2024/02/25 01:11:59;;;;;;;17.55;7.85;;;10.30;99.90;;;;;;5035787;28;20056;-68
2024/02/25 01:14:25;;;;;;;13.27;6.93;;;10.30;99.90;;;;;;5033471;28;20037;-68
2024/02/25 01:16:51;;;;;;;16.23;7.05;;;10.30;99.90;;;;;;5033103;28;20378;-68
2024/02/25 01:19:17;;;;;;;15.18;7.05;;;10.30;99.90;;;;;;5035216;28;20041;-68
2024/02/25 01:21:46;;;;;;;18.20;6.18;;;10.20;99.90;;;;;;5035925;28;20064;-68
2024/02/25 01:24:12;;;;;;;16.20;6.85;;;10.20;99.90;;;;;;5035949;28;20021;-67
2024/02/25 01:26:41;;;;;;;17.52;6.70;;;10.20;99.90;;;;;;5035814;28;20091;-68
2024/02/25 01:29:08;;;;;;;13.65;5.82;;;10.20;99.90;;;;;;5036066;28;20052;-68
2024/02/25 01:31:46;;;;;;;16.17;6.22;;;10.10;99.90;;;;;;5035196;28;20390;-68
2024/02/25 01:34:12;;;;;;;15.90;5.88;;;10.10;99.90;;;;;;5035434;28;20045;-68
2024/02/25 01:36:41;;;;;;;15.23;5.75;;;10.10;99.90;;;;;;5035749;28;20469;-68
2024/02/25 01:39:11;;;;;;;11.18;5.78;;;10.00;99.90;;;;;;5031424;28;20120;-68
2024/02/25 01:41:37;;;;;;;15.68;6.45;;;10.00;99.90;;;;;;5032847;28;20128;-68
2024/02/25 01:44:03;;;;;;;12.73;5.97;;;10.00;99.90;;;;;;5033489;28;20033;-68
2024/02/25 01:46:29;;;;;;;16.63;6.50;;;10.00;99.90;;;;;;5035482;28;20021;-68
2024/02/25 01:48:55;;;;;;;18.02;6.65;;;10.00;99.90;;;;;;5035536;28;20527;-68
2024/02/25 01:51:21;;;;;;;20.50;6.60;;;10.00;99.90;;;;;;5035314;28;20036;-68
2024/02/25 01:53:49;;;;;;;17.07;6.83;;;10.00;99.90;;;;;;5035084;28;20034;-68
2024/02/25 01:56:16;;;;;;;13.95;6.10;;;10.00;99.90;;;;;;5035497;28;20083;-68
2024/02/25 01:58:43;;;;;;;10.57;5.20;;;10.00;99.90;;;;;;5034237;28;20029;-68
2024/02/25 02:01:11;;;;;;;17.88;5.53;;;10.00;99.90;;;;;;5035207;28;20029;-68
2024/02/25 02:03:37;;;;;;;16.70;5.78;;;9.90;99.90;;;;;;5035409;28;20048;-68
2024/02/25 02:06:04;;;;;;;11.20;4.77;;;9.90;99.90;;;;;;5034752;28;20026;-68
2024/02/25 02:08:29;;;;;;;13.43;5.30;;;9.90;99.90;;;;;;5034529;28;20504;-68
2024/02/25 02:10:55;;;;;;;15.23;5.80;;;9.90;99.90;;;;;;5033894;28;20034;-68
2024/02/25 02:13:21;;;;;;;10.23;5.00;;;9.90;99.90;;;;;;5035407;28;20036;-68
2024/02/25 02:15:47;;;;;;;10.97;5.47;;;9.90;99.90;;;;;;5034473;28;20022;-68
2024/02/25 02:18:13;;;;;;;17.30;5.55;;;9.80;99.90;;;;;;5035157;28;20492;-68
2024/02/25 02:20:38;;;;;;;12.75;5.55;;;9.90;99.90;;;;;;5034673;28;20128;-68
2024/02/25 02:23:04;;;;;;;12.43;5.97;;;9.90;99.90;;;;;;5034516;28;20493;-68
2024/02/25 02:25:30;;;;;;;9.90;5.50;;;9.90;99.90;;;;;;5034755;28;20037;-68
2024/02/25 02:27:56;;;;;;;14.82;5.85;;;9.80;99.90;;;;;;5034756;28;20030;-68
2024/02/25 02:30:22;;;;;;;16.42;5.70;;;9.80;99.90;;;;;;5034512;28;20068;-68
2024/02/25 02:32:48;;;;;;;10.38;4.95;;;9.90;99.90;;;;;;5034406;28;20038;-68
2024/02/25 02:35:14;;;;;;;12.13;4.70;;;9.80;99.90;;;;;;5033246;28;20030;-68
2024/02/25 02:37:39;;;;;;;12.93;5.27;;;9.80;99.90;;;;;;5034233;28;20029;-67
2024/02/25 02:40:06;;;;;;;13.23;5.77;;;9.80;99.90;;;;;;5034397;28;20072;-68
2024/02/25 02:42:32;;;;;;;11.35;5.97;;;9.80;99.90;;;;;;5034098;28;20038;-68
2024/02/25 02:45:00;;;;;;;13.57;6.00;;;9.80;99.90;;;;;;5034458;28;20465;-68
2024/02/25 02:47:26;;;;;;;11.37;6.00;;;9.80;99.90;;;;;;5034553;28;20440;-68
2024/02/25 02:49:52;;;;;;;13.30;5.07;;;9.80;99.90;;;;;;5034231;28;20033;-68
2024/02/25 02:52:18;;;;;;;18.52;5.50;;;9.80;99.90;;;;;;5032875;28;20101;-68
2024/02/25 02:54:44;;;;;;;13.17;4.83;;;9.70;99.90;;;;;;5033888;28;20026;-68
2024/02/25 02:57:10;;;;;;;13.00;4.95;;;9.70;99.90;;;;;;5034172;28;20034;-68
2024/02/25 02:59:36;;;;;;;17.55;5.55;;;9.70;99.90;;;;;;5034295;28;20032;-68
2024/02/25 03:02:02;;;;;;;9.98;4.35;;;9.70;99.90;;;;;;5033729;28;20041;-68
2024/02/25 03:04:28;;;;;;;13.87;5.60;;;9.70;99.90;;;;;;5033998;28;20392;-68
2024/02/25 03:06:55;;;;;;;8.80;4.60;;;9.70;99.90;;;;;;5033799;28;20496;-68
2024/02/25 03:09:22;;;;;;;11.07;4.73;;;9.70;99.90;;;;;;5034108;28;20021;-68
2024/02/25 03:11:48;;;;;;;14.93;5.30;;;9.60;99.90;;;;;;5034260;28;20017;-68
2024/02/25 03:14:13;;;;;;;12.10;4.60;;;9.70;99.90;;;;;;5034087;28;20028;-68
2024/02/25 03:16:39;;;;;;;10.00;4.00;;;9.60;99.90;;;;;;5032841;28;20132;-68
2024/02/25 03:19:05;;;;;;;10.50;3.83;;;9.60;99.90;;;;;;5033825;28;20088;-68
2024/02/25 03:21:30;;;;;;;14.30;4.07;;;9.60;99.90;;;;;;5033818;28;20021;-68
2024/02/25 03:23:56;;;;;;;8.50;4.10;;;9.60;99.90;;;;;;5033799;28;20104;-68
2024/02/25 03:26:22;;;;;;;12.73;4.20;;;9.60;99.90;;;;;;5033394;28;20105;-68
2024/02/25 03:28:48;;;;;;;16.13;4.20;;;9.60;99.90;;;;;;5033689;28;20466;-68
2024/02/25 03:31:13;;;;;;;11.23;3.30;;;9.60;99.90;;;;;;5033791;28;20048;-68
2024/02/25 03:33:40;;;;;;;9.20;3.87;;;9.60;99.90;;;;;;5033682;28;20025;-67
2024/02/25 03:36:06;;;;;;;10.17;3.67;;;9.60;99.90;;;;;;5033280;28;20033;-68
2024/02/25 03:38:32;;;;;;;8.63;3.70;;;9.60;99.90;;;;;;5033278;28;20105;-68
2024/02/25 03:40:58;;;;;;;12.33;3.43;;;9.60;99.90;;;;;;5033379;28;20049;-68
2024/02/25 03:43:24;;;;;;;7.73;2.80;;;9.60;99.90;;;;;;5033312;28;20026;-68
2024/02/25 03:45:49;;;;;;;8.33;3.40;;;9.60;99.90;;;;;;5033179;28;20021;-67
2024/02/25 03:48:15;;;;;;;10.80;3.53;;;9.60;99.90;;;;;;5033078;28;20119;-68
2024/02/25 03:50:41;;;;;;;15.43;3.37;;;9.50;99.90;;;;;;5033226;28;20014;-68
2024/02/25 03:53:07;;;;;;;10.90;3.07;;;9.50;99.90;;;;;;5033360;28;20064;-68
2024/02/25 03:55:33;;;;;;;9.40;3.10;;;9.50;99.90;;;;;;5033146;28;20061;-68
2024/02/25 03:57:59;;;;;;;7.03;2.90;;;9.50;99.90;;;;;;5033421;28;20118;-68
2024/02/25 04:00:25;;;;;;;10.03;3.00;;;9.50;99.90;;;;;;5033069;28;20026;-67
2024/02/25 04:02:51;;;;;;;8.50;2.83;;;9.50;99.90;;;;;;5033088;28;20072;-68
2024/02/25 04:05:17;;;;;;;7.83;2.97;;;9.40;99.90;;;;;;5033248;28;20078;-68
2024/02/25 04:07:47;;;;;;;9.37;3.10;;;9.40;99.90;;;;;;5033423;28;20393;-68
2024/02/25 04:10:13;;;;;;;12.40;5.03;;;9.40;99.90;;;;;;5033051;28;20029;-68
2024/02/25 04:12:40;;;;;;;13.77;3.47;;;9.30;99.90;;;;;;5033036;28;20033;-68
2024/02/25 04:15:07;;;;;;;7.10;2.87;;;9.30;99.90;;;;;;5032674;28;20024;-68
2024/02/25 04:17:36;;;;;;;11.17;3.70;;;9.30;99.90;;;;;;5032868;28;20028;-68
2024/02/25 04:20:03;;;;;;;10.10;4.23;;;9.20;99.90;;;;;;5032628;28;20026;-68
2024/02/25 04:22:28;;;;;;;11.03;4.20;;;9.20;99.90;;;;;;5032083;28;20041;-68
2024/02/25 04:24:54;;;;;;;9.57;3.90;;;9.20;99.90;;;;;;5032429;28;20014;-67
2024/02/25 04:27:20;;;;;;;11.30;4.00;;;9.20;99.90;;;;;;5032725;28;20060;-68
2024/02/25 04:29:46;;;;;;;7.63;3.60;;;9.20;99.90;;;;;;5029500;28;20025;-68
2024/02/25 04:32:13;;;;;;;11.73;3.93;;;9.20;99.90;;;;;;5030101;28;20442;-68
2024/02/25 04:34:40;;;;;;;9.53;3.23;;;9.20;99.90;;;;;;5032446;28;20032;-68
2024/02/25 04:37:05;;;;;;;7.77;2.53;;;9.10;99.90;;;;;;5032684;28;20017;-67
2024/02/25 04:39:32;;;;;;;7.77;3.20;;;9.10;99.90;;;;;;5032566;28;20052;-68
2024/02/25 04:41:58;;;;;;;9.00;3.50;;;9.10;99.90;;;;;;5032663;28;20490;-68
2024/02/25 04:44:26;;;;;;;10.80;3.33;;;9.10;99.90;;;;;;5032531;28;20026;-68
2024/02/25 04:46:52;;;;;;;14.13;3.80;;;9.10;99.90;;;;;;5033130;28;20026;-68
2024/02/25 04:49:18;;;;;;;10.90;3.10;;;9.10;99.90;;;;;;5031510;28;20040;-68
2024/02/25 04:51:44;;;;;;;13.83;3.33;;;9.10;99.90;;;;;;5032230;28;20029;-68
2024/02/25 04:54:13;;;;;;;7.03;3.20;;;9.10;99.90;;;;;;5030018;28;20036;-68
2024/02/25 04:56:42;;;;;;;8.20;2.60;;;9.00;99.90;;;;;;5029891;28;20030;-68
2024/02/25 04:59:08;;;;;;;9.23;2.63;;;9.00;99.90;;;;;;5030566;28;20037;-67
2024/02/25 05:01:34;;;;;;;8.37;2.83;;;9.00;99.90;;;;;;5029878;28;20159;-68
2024/02/25 05:04:00;;;;;;;9.73;3.37;;;9.00;99.90;;;;;;5031753;28;20116;-68
2024/02/25 05:06:26;;;;;;;7.53;2.70;;;9.00;99.90;;;;;;5031647;28;20033;-68
2024/02/25 05:08:51;;;;;;;9.37;3.47;;;9.00;99.90;;;;;;5031524;28;20036;-68
2024/02/25 05:11:17;;;;;;;7.80;3.10;;;8.90;99.90;;;;;;5031942;28;20078;-68
2024/02/25 05:13:43;;;;;;;9.97;2.83;;;9.00;99.90;;;;;;5031596;28;20095;-68
2024/02/25 05:16:09;;;;;;;11.00;3.20;;;9.00;99.90;;;;;;5030826;28;20092;-68
2024/02/25 05:18:35;;;;;;;11.23;2.87;;;9.00;99.90;;;;;;5032161;28;20477;-68
2024/02/25 05:21:02;;;;;;;9.03;2.73;;;9.00;99.90;;;;;;5032158;28;20028;-68
2024/02/25 05:23:28;;;;;;;11.30;3.47;;;9.00;99.90;;;;;;5032118;28;20037;-68
2024/02/25 05:25:54;;;;;;;7.60;2.40;;;8.90;99.90;;;;;;5032251;28;20539;-68
2024/02/25 05:28:20;;;;;;;8.87;2.60;;;8.90;99.90;;;;;;5032288;28;20021;-67
2024/02/25 05:30:46;;;;;;;5.60;2.57;;;8.90;99.90;;;;;;5031729;28;20021;-68
2024/02/25 05:33:11;;;;;;;5.87;2.60;;;8.80;99.90;;;;;;5032295;28;20105;-66
2024/02/25 05:35:39;;;;;;;10.57;3.00;;;8.90;99.90;;;;;;5035318;28;20017;-67
2024/02/25 05:38:05;;;;;;;6.73;2.60;;;8.90;99.90;;;;;;5034999;28;20537;-67
2024/02/25 05:40:31;;;;;;;10.43;2.97;;;8.80;99.90;;;;;;5035006;28;20517;-68
2024/02/25 05:42:57;;;;;;;9.27;2.70;;;8.80;99.90;;;;;;5035198;28;20037;-67
2024/02/25 05:45:22;;;;;;;10.17;2.90;;;8.80;99.90;;;;;;5035129;28;20029;-68
2024/02/25 05:47:48;;;;;;;7.53;2.47;;;8.80;99.90;;;;;;5035519;28;20026;-67
2024/02/25 05:50:14;;;;;;;8.00;2.60;;;8.80;99.90;;;;;;5035608;28;20022;-67
2024/02/25 05:52:42;;;;;;;7.33;2.80;;;8.80;99.90;;;;;;5034681;28;20033;-67
2024/02/25 05:55:08;;;;;;;9.53;2.90;;;8.70;99.90;;;;;;5033458;28;20129;-67
2024/02/25 05:57:34;;;;;;;9.33;2.77;;;8.70;99.90;;;;;;5034940;28;20108;-67
2024/02/25 06:00:00;;;;;;;9.00;3.30;;;8.70;99.90;;;;;;5034412;28;20478;-67
2024/02/25 06:02:26;;;;;;;8.80;3.13;;;8.70;99.90;;;;;;5033660;28;20045;-67
2024/02/25 06:04:52;;;;;;;8.73;2.57;;;8.60;99.90;;;;;;5035119;28;20028;-67
2024/02/25 06:07:18;;;;;;;8.13;3.20;;;8.60;99.90;;;;;;5034951;28;20044;-67
2024/02/25 06:09:44;;;;;;;10.37;3.10;;;8.60;99.90;;;;;;5034587;28;20028;-67
2024/02/25 06:12:10;;;;;;;8.57;3.23;;;8.60;99.90;;;;;;5034868;28;20112;-67
2024/02/25 06:14:35;;;;;;;9.90;3.30;;;8.60;99.90;;;;;;5035185;28;20128;-67
2024/02/25 06:17:01;;;;;;;5.00;2.80;;;8.50;99.90;;;;;;5034408;28;20029;-67
2024/02/25 06:19:27;;;;;;;11.80;3.20;;;8.50;99.90;;;;;;5034732;28;20028;-67
2024/02/25 06:21:53;;;;;;;9.13;3.73;;;8.50;99.90;;;;;;5034077;28;20037;-67
2024/02/25 06:24:19;;;;;;;5.17;2.90;;;8.50;99.90;;;;;;5034072;28;20029;-68
2024/02/25 06:26:45;;;;;;;8.93;3.20;;;8.50;99.90;;;;;;5033666;28;20117;-68
2024/02/25 06:29:11;;;;;;;8.33;3.67;;;8.50;99.90;;;;;;5033801;28;20022;-67
2024/02/25 06:31:37;;;;;;;8.20;3.03;;;8.50;99.90;;;;;;5033854;28;20049;-67
2024/02/25 06:34:03;;;;;;;7.57;3.00;;;8.40;99.90;;;;;;5034118;28;20469;-67
2024/02/25 06:36:28;;;;;;;7.07;3.10;;;8.50;99.90;;;;;;5033553;28;20057;-67
2024/02/25 06:38:54;;;;;;;7.73;3.70;;;8.40;99.90;;;;;;5034122;28;20060;-67
2024/02/25 06:41:23;;;;;;;8.10;3.23;;;8.40;99.90;;;;;;5033154;28;20061;-67
2024/02/25 06:43:51;;;;;;;8.27;3.13;;;8.40;99.90;;;;;;5034160;28;20374;-67
2024/02/25 06:46:17;;;;;;;11.20;2.80;;;8.40;99.90;;;;;;5033914;28;20021;-67
2024/02/25 06:48:43;;;;;;;11.80;4.30;;;8.40;99.90;;;;;;5034339;28;20398;-67
2024/02/25 06:51:27;;;;;;;5.60;2.87;;;8.40;99.90;;;;;;5033972;28;20473;-67
2024/02/25 06:53:54;;;;;;;7.90;3.10;;;8.30;99.90;;;;;;5033645;28;20057;-67
2024/02/25 06:56:20;;;;;;;5.83;2.63;;;8.30;99.90;;;;;;5032583;28;20128;-67
2024/02/25 06:58:45;;;;;;;9.43;3.00;;;8.30;99.90;;;;;;5033930;28;20033;-67
2024/02/25 07:01:15;;;;;;;6.87;2.83;;;8.30;99.90;;;;;;5033788;28;20105;-67
2024/02/25 07:03:46;;;;;;;5.30;2.97;;;8.20;99.90;;;;;;5033910;28;20029;-67
2024/02/25 07:06:13;;;;;;;6.03;2.90;;;8.20;99.90;;;;;;5033748;28;20014;-69
2024/02/25 07:08:39;;;;;;;4.67;2.93;;;8.20;99.90;;;;;;5034322;28;20572;-67
2024/02/25 07:11:27;;;;;;;7.93;3.40;;;8.30;99.90;;;;;;5034069;28;20033;-67
2024/02/25 07:13:53;;;;;;;6.60;3.20;;;8.30;99.90;;;;;;5033771;28;20018;-67
2024/02/25 07:16:19;;;;;;;9.73;3.10;;;8.30;99.90;;;;;;5033784;28;20022;-67
2024/02/25 07:18:45;;;;;;;10.47;3.47;;;8.30;99.90;;;;;;5031045;28;20029;-68
2024/02/25 07:21:13;;;;;;;9.47;3.67;;;8.30;99.90;;;;;;5033793;28;20025;-67
2024/02/25 07:23:43;;;;;;;6.43;3.10;;;8.30;99.90;;;;;;5033756;28;20382;-67
2024/02/25 07:26:10;;;;;;;11.50;3.50;;;8.30;99.90;;;;;;5033473;28;20049;-67
2024/02/25 07:28:40;;;;;;;12.57;3.50;;;8.40;99.90;;;;;;5033657;28;20037;-68
2024/02/25 07:31:15;;;;;;;7.73;3.20;;;8.40;99.90;;;;;;5033391;28;20390;-67
2024/02/25 07:33:41;;;;;;;9.53;3.10;;;8.50;99.90;;;;;;5033521;28;20032;-67
2024/02/25 07:36:11;;;;;;;7.17;3.10;;;8.50;99.90;;;;;;5033560;28;20113;-67
2024/02/25 07:38:38;;;;;;;7.47;2.73;;;8.50;99.90;;;;;;5033122;28;20112;-67
2024/02/25 07:41:05;;;;;;;7.77;3.03;;;8.60;99.90;;;;;;5033384;28;20105;-67
2024/02/25 07:43:36;;;;;;;8.53;3.47;;;8.60;99.90;;;;;;5033200;28;20041;-67
2024/02/25 07:46:05;;;;;;;7.90;3.23;;;8.60;99.90;;;;;;5032340;28;20029;-68
2024/02/25 07:48:31;;;;;;;10.20;3.00;;;8.60;99.90;;;;;;5030370;28;20030;-67
2024/02/25 07:50:57;;;;;;;11.03;4.70;;;8.70;99.90;;;;;;5030303;28;20806;-68
2024/02/25 07:53:23;;;;;;;13.33;4.97;;;8.70;99.90;;;;;;5031087;28;20429;-69
2024/02/25 07:55:49;;;;;;;9.77;5.07;;;8.60;99.90;;;;;;5032257;28;20034;-75
2024/02/25 07:58:15;;;;;;;8.93;4.47;;;8.70;99.90;;;;;;5032580;28;20395;-68
2024/02/25 08:00:41;;;;;;;10.10;4.70;;;8.60;99.90;;;;;;5031863;28;20500;-78
2024/02/25 08:03:07;;;;;;;10.10;4.90;;;8.70;99.90;;;;;;5032139;28;20294;-71
2024/02/25 08:05:33;;;;;;;8.10;4.33;;;8.70;99.90;;;;;;5032865;28;20100;-77
2024/02/25 08:07:59;;;;;;;7.70;3.90;;;8.70;99.90;;;;;;5032249;28;20029;-68
2024/02/25 08:10:24;;;;;;;11.57;6.00;;;8.80;99.90;;;;;;5028786;28;20025;-74
2024/02/25 08:12:50;;;;;;;12.77;5.40;;;8.80;99.90;;;;;;5030292;28;20029;-74
2024/02/25 08:15:17;;;;;;;10.87;5.83;;;8.80;99.90;;;;;;5032712;28;20026;-74
2024/02/25 08:17:42;;;;;;;9.90;5.50;;;8.90;99.90;;;;;;5033045;28;20033;-73
2024/02/25 08:20:10;;;;;;;17.50;5.10;;;8.90;99.90;;;;;;5032700;28;20426;-73
2024/02/25 08:22:38;;;;;;;10.83;5.70;;;8.90;99.90;;;;;;5032691;28;20037;-74
2024/02/25 08:25:05;;;;;;;13.60;5.27;;;8.90;99.90;;;;;;5032805;28;20033;-73
2024/02/25 08:27:32;;;;;;;9.70;5.00;;;9.00;99.90;;;;;;5032528;28;20492;-74
2024/02/25 08:30:05;;;;;;;11.83;4.87;;;9.00;99.90;;;;;;5033132;28;20033;-74
2024/02/25 08:32:31;;;;;;;18.63;7.33;;;9.10;99.90;;;;;;5032272;28;20034;-74
2024/02/25 08:34:57;;;;;;;14.40;7.20;;;9.10;99.90;;;;;;5032541;28;20025;-73
2024/02/25 08:37:27;;;;;;;12.97;6.80;;;9.10;99.90;;;;;;5032817;28;20496;-74
2024/02/25 08:39:53;;;;;;;15.10;5.53;;;9.10;99.90;;;;;;5032699;28;20056;-74
2024/02/25 08:42:20;;;;;;;15.97;5.97;;;9.10;99.90;;;;;;5032355;28;20092;-74
2024/02/25 08:44:46;;;;;;;9.73;5.07;;;9.10;99.90;;;;;;5032555;28;20025;-74
2024/02/25 08:47:13;;;;;;;12.40;5.40;;;9.20;99.90;;;;;;5032815;28;20101;-73
2024/02/25 08:49:39;;;;;;;8.73;4.73;;;9.20;99.90;;;;;;5032599;28;20030;-72
2024/02/25 08:52:05;;;;;;;12.27;4.60;;;9.30;99.90;;;;;;5032731;28;20021;-73
2024/02/25 08:54:31;;;;;;;10.20;3.50;;;9.40;99.90;;;;;;5032564;28;20018;-75
2024/02/25 08:56:57;;;;;;;9.50;3.20;;;9.50;99.90;;;;;;5032124;28;20033;-73
2024/02/25 08:59:24;;;;;;;9.65;3.92;;;9.60;99.90;;;;;;5032457;28;20544;-74
2024/02/25 09:01:49;;;;;;;7.30;3.10;;;9.70;99.90;;;;;;5032237;28;20068;-73
2024/02/25 09:04:15;;;;;;;6.37;2.90;;;9.80;99.90;;;;;;5032630;28;20033;-74
2024/02/25 09:06:41;;;;;;;10.57;3.00;;;9.90;99.90;;;;;;5032557;28;20022;-74
2024/02/25 09:09:07;;;;;;;8.83;2.93;;;10.00;99.90;;;;;;5034523;28;20100;-74
2024/02/25 09:11:33;;;;;;;7.97;3.15;;;10.10;99.90;;;;;;5036586;28;20049;-72
2024/02/25 09:13:59;;;;;;;11.48;3.38;;;10.20;99.90;;;;;;5036158;28;20036;-72
2024/02/25 09:16:25;;;;;;;9.65;2.92;;;10.30;99.90;;;;;;5036286;28;20018;-72
2024/02/25 09:18:50;;;;;;;8.45;2.58;;;10.30;99.90;;;;;;5036100;28;20026;-74
2024/02/25 09:21:16;;;;;;;7.38;2.80;;;10.50;99.90;;;;;;5036089;28;20022;-73
2024/02/25 09:23:42;;;;;;;9.30;3.60;;;10.50;99.90;;;;;;5036004;28;20042;-73
2024/02/25 09:26:09;;;;;;;7.88;3.17;;;10.60;99.90;;;;;;5036031;28;20014;-73
2024/02/25 09:28:35;;;;;;;7.32;3.05;;;10.70;99.90;;;;;;5035114;28;20491;-73
2024/02/25 09:31:01;;;;;;;7.32;2.75;;;10.80;99.90;;;;;;5035173;28;20486;-72
2024/02/25 09:33:29;;;;;;;10.05;2.60;;;10.80;99.90;;;;;;5033438;28;20520;-73
2024/02/25 09:35:59;;;;;;;5.38;2.03;;;10.90;99.90;;;;;;5032775;28;20029;-74
2024/02/25 09:38:26;;;;;;;8.30;2.67;;;11.00;99.90;;;;;;5034265;28;20030;-72
2024/02/25 09:41:00;;;;;;;4.22;1.20;;;11.00;99.90;;;;;;5035563;28;20049;-73
2024/02/25 09:43:27;;;;;;;4.32;1.40;;;11.10;99.90;;;;;;5035588;28;20043;-73
2024/02/25 09:45:56;;;;;;;6.57;1.63;;;11.10;99.90;;;;;;5035455;28;20469;-72
2024/02/25 09:48:26;;;;;;;4.85;1.00;;;11.20;99.90;;;;;;5035611;28;20381;-74
2024/02/25 09:50:53;;;;;;;2.90;1.02;;;11.20;99.90;;;;;;5034950;28;20098;-74
2024/02/25 09:53:22;;;;;;;4.85;0.85;;;11.20;99.90;;;;;;5034889;28;20551;-74
2024/02/25 09:55:49;;;;;;;6.45;1.88;;;11.20;99.90;;;;;;5034575;28;20116;-74
2024/02/25 09:58:17;;;;;;;7.57;1.33;;;11.20;99.90;;;;;;5033194;28;20033;-74
2024/02/25 10:00:44;;;;;;;5.18;1.10;;;11.30;99.90;;;;;;5030213;28;20036;-73
2024/02/25 10:03:12;;;;;;;3.53;1.13;;;11.40;99.90;;;;;;5032579;28;20071;-75
2024/02/25 10:05:41;;;;;;;4.68;1.52;;;11.50;99.90;;;;;;5034476;28;20534;-74
2024/02/25 10:08:11;;;;;;;4.32;1.15;;;11.60;99.90;;;;;;5034922;28;20025;-74
2024/02/25 10:10:40;;;;;;;5.78;1.13;;;11.70;99.90;;;;;;5034808;28;20381;-74
2024/02/25 10:13:06;;;;;;;4.68;1.20;;;11.80;99.90;;;;;;5034878;28;20072;-67
2024/02/25 10:15:32;;;;;;;2.78;0.80;;;11.90;99.90;;;;;;5033680;28;20393;-67
2024/02/25 10:17:58;;;;;;;2.40;0.88;;;11.90;99.90;;;;;;5035092;28;20057;-68
2024/02/25 10:20:24;;;;;;;5.65;0.80;;;11.90;99.90;;;;;;5034050;28;20076;-67
2024/02/25 10:23:11;;;;;;;4.43;0.90;;;11.90;99.90;;;;;;5034757;28;20068;-67
2024/02/25 10:25:39;;;;;;;4.68;1.05;;;12.00;99.90;;;;;;5034922;28;20109;-67
2024/02/25 10:28:11;;;;;;;4.47;0.93;;;12.10;99.90;;;;;;5034394;28;20026;-67
2024/02/25 10:30:37;;;;;;;5.53;1.13;;;12.10;99.90;;;;;;5034760;28;20033;-68
2024/02/25 10:33:28;;;;;;;2.55;0.75;;;12.10;99.90;;;;;;5034617;28;20022;-69
2024/02/25 10:36:03;;;;;;;3.20;1.00;;;12.20;99.90;;;;;;5032569;28;20502;-69
2024/02/25 10:38:29;;;;;;;5.50;1.70;;;12.10;99.90;;;;;;5034534;28;20466;-68
2024/02/25 10:40:55;;;;;;;5.25;0.98;;;12.20;99.90;;;;;;5034519;28;20087;-74
2024/02/25 10:43:26;;;;;;;4.22;1.08;;;12.10;99.90;;;;;;5034429;28;20030;-74
2024/02/25 10:45:53;;;;;;;3.28;1.00;;;12.10;99.90;;;;;;5034245;28;20363;-73
2024/02/25 10:48:21;;;;;;;3.00;0.90;;;12.20;99.90;;;;;;5032343;28;20037;-75
2024/02/25 10:50:49;;;;;;;4.38;1.17;;;12.20;99.90;;;;;;5031264;28;20490;-73
2024/02/25 10:53:18;;;;;;;2.35;0.70;;;12.30;99.90;;;;;;5031376;28;20037;-74
2024/02/25 10:55:47;;;;;;;2.17;0.82;;;12.40;99.90;;;;;;5033320;28;20493;-74
2024/02/25 10:58:16;;;;;;;2.50;0.88;;;12.40;99.90;;;;;;5033726;28;20037;-74
2024/02/25 11:00:43;;;;;;;6.03;1.13;;;12.50;99.90;;;;;;5031964;28;20025;-74
2024/02/25 11:03:09;;;;;;;4.38;1.20;;;12.60;99.90;;;;;;5031693;28;20109;-74
2024/02/25 11:05:35;;;;;;;3.67;1.05;;;12.70;99.90;;;;;;5032896;28;20026;-74
2024/02/25 11:08:01;;;;;;;4.90;1.23;;;12.70;99.90;;;;;;5033083;28;20025;-74
2024/02/25 11:10:33;;;;;;;4.05;0.82;;;12.70;99.90;;;;;;5033580;28;20080;-72
2024/02/25 11:13:02;;;;;;;4.18;1.00;;;12.70;99.90;;;;;;5033841;28;20381;-74
2024/02/25 11:15:28;;;;;;;2.90;1.00;;;12.80;99.90;;;;;;5033745;28;20382;-74
2024/02/25 11:17:57;;;;;;;3.63;0.75;;;12.90;99.90;;;;;;5033036;28;20021;-72
2024/02/25 11:20:27;;;;;;;3.92;0.88;;;12.90;99.70;;;;;;5030048;28;20068;-74
2024/02/25 11:22:52;;;;;;;3.00;1.13;;;13.00;99.00;;;;;;5030578;28;20041;-71
2024/02/25 11:25:30;;;;;;;4.60;1.30;;;13.00;98.90;;;;;;5031745;28;20101;-74
2024/02/25 11:28:13;;;;;;;4.05;1.10;;;12.90;98.20;;;;;;5032954;28;20025;-73
2024/02/25 11:30:43;;;;;;;3.13;1.02;;;12.90;98.20;;;;;;5032361;28;20036;-68
2024/02/25 11:33:33;;;;;;;2.58;1.00;;;12.90;98.30;;;;;;5032986;28;20032;-74
2024/02/25 11:36:00;;;;;;;4.18;1.08;;;12.90;98.00;;;;;;5033204;28;20026;-73
2024/02/25 11:38:27;;;;;;;4.45;0.93;;;12.90;98.10;;;;;;5033071;28;20030;-75
2024/02/25 11:40:55;;;;;;;4.05;1.00;;;12.90;98.30;;;;;;5040211;23;20050;-74
2024/02/25 11:43:22;;;;;;;4.90;1.15;;;12.80;98.30;;;;;;5032588;28;20396;-76
2024/02/25 11:45:48;;;;;;;5.35;1.55;;;12.80;98.40;;;;;;5032920;28;20028;-75
2024/02/25 11:48:14;;;;;;;4.82;1.63;;;12.80;98.60;;;;;;5032914;28;20461;-75
2024/02/25 11:50:40;;;;;;;7.45;2.38;;;12.70;98.80;;;;;;5032889;28;20049;-74
2024/02/25 11:53:06;;;;;;;5.75;1.10;;;12.70;99.20;;;;;;5032893;28;20052;-74
2024/02/25 11:55:32;;;;;;;5.35;1.67;;;12.70;99.00;;;;;;5032848;28;20116;-71
2024/02/25 11:57:59;;;;;;;6.10;1.08;;;12.80;99.20;;;;;;5032292;28;20026;-72
2024/02/25 12:00:26;;;;;;;3.42;1.00;;;12.90;99.90;;;;;;5032782;28;20478;-74
2024/02/25 12:02:52;;;;;;;3.17;1.42;;;13.00;99.00;;;;;;5032445;28;20064;-68
2024/02/25 12:05:18;;;;;;;4.43;1.52;;;13.10;99.10;;;;;;5030033;28;20389;-68
2024/02/25 12:07:57;;;;;;;4.72;1.45;;;13.20;99.20;;;;;;5029909;28;20033;-68
2024/02/25 12:10:25;;;;;;;3.63;1.33;;;13.20;98.80;;;;;;5032596;28;20040;-68
2024/02/25 12:12:52;;;;;;;3.45;1.50;;;13.20;99.00;;;;;;5031392;28;20389;-69
2024/02/25 12:15:26;;;;;;;4.22;2.03;;;13.20;99.40;;;;;;5033273;28;20391;-68
2024/02/25 12:17:52;;;;;;;5.22;1.50;;;13.10;99.90;;;;;;5032562;28;20079;-68
2024/02/25 12:20:19;;;;;;;6.25;1.65;;;13.10;99.90;;;;;;5032425;28;20037;-68
2024/02/25 12:22:45;;;;;;;5.07;1.70;;;13.10;99.90;;;;;;5031381;28;20120;-68
2024/02/25 12:25:18;;;;;;;7.15;1.65;;;13.00;99.90;;;;;;5029909;28;20063;-68
2024/02/25 12:27:48;;;;;;;7.38;2.20;;;12.90;99.90;;;;;;5029483;28;20079;-68
2024/02/25 12:30:14;;;;;;;5.70;1.67;;;12.80;99.90;;;;;;5030456;28;20055;-68
2024/02/25 12:32:40;;;;;;;4.93;1.48;;;12.80;99.90;;;;;;5032370;28;20061;-68
2024/02/25 12:35:08;;;;;;;5.20;1.67;;;12.80;99.90;;;;;;5032789;28;20516;-68
2024/02/25 12:37:34;;;;;;;5.03;1.35;;;12.80;99.90;;;;;;5031958;28;20018;-68
2024/02/25 12:40:00;;;;;;;4.30;1.48;;;12.80;99.90;;;;;;5032079;28;20505;-68
2024/02/25 12:42:28;;;;;;;3.35;1.30;;;12.90;99.90;;;;;;5032877;28;20036;-68
2024/02/25 12:44:54;;;;;;;5.43;1.38;;;12.90;99.90;;;;;;5036313;28;20017;-68
2024/02/25 12:47:20;;;;;;;2.97;1.17;;;13.00;99.90;;;;;;5036097;28;20366;-67